Steinkjer, Norge

13:50:CET den 20. desember 2014 (GMT +0100)
Helgesmark/Byafossen | Change Station
CLOSE
Current Station
Personlig værstasjon
Location: Steinkjer, NORD-TRNDELAG
Høyde over havet: 328 ft
Nearby Weather Stations

H.o.h 328 ft 64.03 °N, 11.55 °E | Updated 19 seconds ago

Mostly Cloudy
For det meste skyet
31.8 °F
Feels Like 32 °F
N
0.0
Vind Variabel Vind from
Gusts 1.3 mph

I dag
High -- | Low -- °F
--% Chance of Precip.
I går
High -- | Low -- °F
Precip. -- tommer
10:05 AM 2:17 PM
Minkende sigd, 3% visible
Lufttrykk 29.18 tommer
Sikt 6.2 eng. mil
Skyet Sporadisk skyet 1000 ft
For det meste skyet 1600 ft
Nedkjølingseffekt 32 °F
Duggpunkt 31 °F
Fuktighet 96%
Regn 0.00 tommer
Snødybde Not available.
UV 0.0 av 12
Pollen Not available.
Luftkvalitet Not available.
Flu Activity Not available.
METAR ENVA 201220Z 24011KT 9999 SCT010 BKN016 02/01 Q0988 TEMPO 1500 SHSN VV008 RMK WIND 670FT 28017KT

More Conditions Fewer Conditions

Lufttrykk 29.18 tommer
Sikt 6.2 eng. mil
Skyet Sporadisk skyet 1000 ft
For det meste skyet 1600 ft
Nedkjølingseffekt 32 °F
Duggpunkt 31 °F
Fuktighet 96%
Regn 0.00 tommer
Snødybde Not available.
UV 0.0 av 12
Pollen Not available.
Luftkvalitet Not available.
Flu Activity Not available.
METAR ENVA 201220Z 24011KT 9999 SCT010 BKN016 02/01 Q0988 TEMPO 1500 SHSN VV008 RMK WIND 670FT 28017KT

More Conditions Fewer Conditions

10-Day Weather Forecast

Almanac

Astronomi

Dec. 20, 2014 Oppgang Nedgang
Virkelig tid
Tussmørke
Nautisk skumring
Astronomisk skumring
Månen
Lengde av synlig lys
Dagens lengde
Tomorrow will be .
, % of the Moon is Illuminated

Dagens maks og min

Country Highs Country Lows

Community

WunderPhotos

Upload Photos

1,779,163 photos uploaded!

WunderBlogs® & News

Nearby

Luftkvalitet

  Luftkvalitet AQ Indeks Forurensing
Not available.

Snødybde

Stasjon Depth Høyde over havet

Earthquake Activity

By Distance Mag. Time & Date
Minimum magnitude displayed is 2.5.

Coastal Water Temperatures

Sted Temperatur

Nearby Weather Stations